createdAt,value
2022-08-04T00:02:09.259Z,101332.75
2022-08-04T00:04:48.532Z,101307.31
2022-08-04T00:07:44.051Z,101297.00
2022-08-04T00:10:14.885Z,101310.22
2022-08-04T00:12:52.508Z,101325.91
2022-08-04T00:15:22.039Z,101311.00
2022-08-04T00:17:59.917Z,101314.41
2022-08-04T00:20:33.937Z,101301.16
2022-08-04T00:23:03.779Z,101314.41
2022-08-04T00:25:32.395Z,101284.63
2022-08-04T00:28:02.815Z,101267.84
2022-08-04T00:30:31.452Z,101302.81
2022-08-04T00:33:02.965Z,101284.84
2022-08-04T00:35:33.268Z,101298.88
2022-08-04T00:38:02.683Z,101307.84
2022-08-04T00:40:41.680Z,101302.34
2022-08-04T00:43:20.639Z,101296.81
2022-08-04T00:46:42.702Z,101301.25
2022-08-04T00:50:06.598Z,101294.25
2022-08-04T00:52:49.413Z,101288.38
2022-08-04T00:55:55.160Z,101292.88
2022-08-04T00:58:36.582Z,101294.75
2022-08-04T01:01:07.659Z,101271.88
2022-08-04T01:03:51.599Z,101279.78
2022-08-04T01:06:35.734Z,101292.06
2022-08-04T01:09:35.677Z,101286.72
2022-08-04T01:12:27.349Z,101291.09
2022-08-04T01:15:07.688Z,101258.09
2022-08-04T01:17:59.772Z,101291.31
2022-08-04T01:20:33.709Z,101286.06
2022-08-04T01:24:01.403Z,101270.22
2022-08-04T01:26:57.766Z,101274.88
2022-08-04T01:29:46.655Z,101295.25
2022-08-04T01:32:26.608Z,101266.28
2022-08-04T01:35:05.074Z,101296.19
2022-08-04T01:37:49.352Z,101296.25
2022-08-04T01:40:18.874Z,101261.31
2022-08-04T01:42:50.200Z,101270.72
2022-08-04T01:45:20.015Z,101276.94
2022-08-04T01:47:53.036Z,101271.72
2022-08-04T01:50:22.856Z,101280.38
2022-08-04T01:52:56.214Z,101283.88
2022-08-04T01:55:51.925Z,101276.72
2022-08-04T01:58:15.552Z,101287.50
2022-08-04T02:00:56.611Z,101280.28
2022-08-04T02:04:18.548Z,101246.19
2022-08-04T02:06:33.772Z,101264.97
2022-08-04T02:09:13.327Z,101266.59
2022-08-04T02:11:45.880Z,101289.81
2022-08-04T02:14:38.137Z,101256.66
2022-08-04T02:17:13.878Z,101274.13
2022-08-04T02:20:10.182Z,101276.66
2022-08-04T02:22:48.703Z,101282.66
2022-08-04T02:25:25.881Z,101263.25
2022-08-04T02:28:28.642Z,101252.69
2022-08-04T02:31:09.571Z,101245.00
2022-08-04T02:33:43.136Z,101261.31
2022-08-04T02:36:17.714Z,101252.34
2022-08-04T02:38:58.722Z,101234.44
2022-08-04T02:41:29.476Z,101227.72
2022-08-04T02:44:00.644Z,101233.13
2022-08-04T02:46:30.967Z,101226.94
2022-08-04T02:49:05.188Z,101214.75
2022-08-04T02:51:36.812Z,101236.00
2022-08-04T02:54:08.023Z,101252.00
2022-08-04T02:56:39.328Z,101252.34
2022-08-04T02:59:10.453Z,101244.34
2022-08-04T03:01:56.778Z,101230.16
2022-08-04T03:04:50.377Z,101244.97
2022-08-04T03:07:54.445Z,101234.91
2022-08-04T03:11:09.334Z,101246.22
2022-08-04T03:14:06.158Z,101240.97
2022-08-04T03:17:16.982Z,101229.59
2022-08-04T03:20:30.260Z,101244.59
2022-08-04T03:23:31.662Z,101251.81
2022-08-04T03:26:55.215Z,101248.34
2022-08-04T03:30:02.077Z,101246.84
2022-08-04T03:33:07.125Z,101198.44
2022-08-04T03:36:11.749Z,101247.47
2022-08-04T03:39:37.018Z,101247.28
2022-08-04T03:42:45.796Z,101231.38
2022-08-04T03:45:52.493Z,101223.63
2022-08-04T03:48:54.805Z,101249.09
2022-08-04T03:52:01.515Z,101241.44
2022-08-04T03:55:12.258Z,101250.66
2022-08-04T03:58:02.554Z,101226.97
2022-08-04T04:00:41.269Z,101235.78
2022-08-04T04:03:52.224Z,101262.72
2022-08-04T04:07:23.146Z,101265.28
2022-08-04T04:10:30.711Z,101236.50
2022-08-04T04:13:30.667Z,101266.13
2022-08-04T04:16:34.874Z,101258.13
2022-08-04T04:19:38.152Z,101267.13
2022-08-04T04:22:26.355Z,101266.34
2022-08-04T04:25:12.239Z,101268.94
2022-08-04T04:27:53.695Z,101267.81
2022-08-04T04:30:32.699Z,101266.13
2022-08-04T04:33:22.676Z,101255.78
2022-08-04T04:36:04.326Z,101254.63
2022-08-04T04:38:57.897Z,101260.06
2022-08-04T04:42:02.453Z,101237.56
2022-08-04T04:45:04.386Z,101253.91
2022-08-04T04:48:09.619Z,101253.97
2022-08-04T04:50:53.047Z,101249.22
2022-08-04T04:53:39.704Z,101249.97
2022-08-04T04:56:20.301Z,101248.97
2022-08-04T04:58:50.583Z,101253.84
2022-08-04T05:01:52.470Z,101246.22
2022-08-04T05:05:07.135Z,101255.38
2022-08-04T05:08:45.519Z,101251.41
2022-08-04T05:12:06.117Z,101254.56
2022-08-04T05:14:54.654Z,101228.75
2022-08-04T05:17:28.790Z,101221.28
2022-08-04T05:20:04.747Z,101235.06
2022-08-04T05:22:40.852Z,101244.28
2022-08-04T05:25:20.320Z,101248.25
2022-08-04T05:27:57.243Z,101246.28
2022-08-04T05:30:28.367Z,101254.81
2022-08-04T05:33:03.677Z,101249.75
2022-08-04T05:36:17.730Z,101234.84
2022-08-04T05:38:35.419Z,101226.81
2022-08-04T05:41:04.737Z,101241.09
2022-08-04T05:43:35.572Z,101218.38
2022-08-04T05:46:05.382Z,101237.44
2022-08-04T05:48:35.271Z,101239.34
2022-08-04T05:51:05.892Z,101199.00
2022-08-04T05:53:35.689Z,101236.72
2022-08-04T05:56:06.576Z,101260.91
2022-08-04T05:58:36.991Z,101255.03
2022-08-04T06:01:07.225Z,101238.75
2022-08-04T06:03:36.972Z,101232.91
2022-08-04T06:06:06.216Z,101231.66
2022-08-04T06:08:34.957Z,101233.81
2022-08-04T06:11:07.994Z,101216.56
2022-08-04T06:13:47.602Z,101256.38
2022-08-04T06:16:29.926Z,101228.28
2022-08-04T06:20:03.891Z,101259.13
2022-08-04T06:21:57.737Z,101230.78
2022-08-04T06:24:30.223Z,101253.09
2022-08-04T06:26:58.918Z,101245.84
2022-08-04T06:29:34.572Z,101242.31
2022-08-04T06:32:29.939Z,101251.09
2022-08-04T06:35:04.429Z,101262.47
2022-08-04T06:37:42.439Z,101247.09
2022-08-04T06:40:29.492Z,101263.28
2022-08-04T06:42:59.544Z,101265.50
2022-08-04T06:45:30.432Z,101256.44
2022-08-04T06:48:00.335Z,101271.44
2022-08-04T06:51:28.657Z,101278.03
2022-08-04T06:53:19.012Z,101272.06
2022-08-04T06:55:49.684Z,101268.47
2022-08-04T06:58:20.350Z,101278.75
2022-08-04T07:00:50.734Z,101272.31
2022-08-04T07:03:21.825Z,101265.06
2022-08-04T07:05:52.290Z,101274.41
2022-08-04T07:08:21.728Z,101273.88
2022-08-04T07:10:51.048Z,101270.59
2022-08-04T07:13:21.529Z,101263.06
2022-08-04T07:15:51.974Z,101287.06
2022-08-04T07:18:20.589Z,101266.31
2022-08-04T07:20:50.236Z,101278.78
2022-08-04T07:23:23.852Z,101278.91
2022-08-04T07:26:00.149Z,101297.44
2022-08-04T07:28:42.360Z,101281.34
2022-08-04T07:31:33.221Z,101277.44
2022-08-04T07:34:17.042Z,101302.22
2022-08-04T07:36:55.155Z,101292.78
2022-08-04T07:39:29.599Z,101298.69
2022-08-04T07:42:01.669Z,101289.16
2022-08-04T07:44:31.993Z,101304.03
2022-08-04T07:47:03.048Z,101289.91
2022-08-04T07:49:54.895Z,101308.50
2022-08-04T07:52:21.538Z,101313.44
2022-08-04T07:54:51.641Z,101318.88
2022-08-04T07:57:41.003Z,101300.13
2022-08-04T08:00:11.087Z,101302.88
2022-08-04T08:02:44.878Z,101293.16
2022-08-04T08:05:18.072Z,101325.81
2022-08-04T08:07:50.660Z,101311.97
2022-08-04T08:10:24.054Z,101314.25
2022-08-04T08:12:53.441Z,101318.00
2022-08-04T08:15:22.721Z,101316.97
2022-08-04T08:17:58.836Z,101298.19
2022-08-04T08:20:31.525Z,101301.63
2022-08-04T08:23:02.326Z,101316.84
2022-08-04T08:25:33.361Z,101334.22
2022-08-04T08:28:03.695Z,101329.41
2022-08-04T08:30:33.856Z,101307.28
2022-08-04T08:33:08.352Z,101327.69
2022-08-04T08:35:53.967Z,101307.06
2022-08-04T08:38:46.754Z,101315.31
2022-08-04T08:41:57.320Z,101319.13
2022-08-04T08:45:26.098Z,101315.31
2022-08-04T08:48:57.577Z,101326.81
2022-08-04T08:51:47.364Z,101328.72
2022-08-04T08:54:55.977Z,101320.00
2022-08-04T08:58:00.009Z,101332.97
2022-08-04T09:00:43.779Z,101335.78
2022-08-04T09:03:35.462Z,101324.34
2022-08-04T09:06:33.156Z,101345.50
2022-08-04T09:09:22.103Z,101356.28
2022-08-04T09:11:59.869Z,101347.00
2022-08-04T09:14:43.039Z,101346.09
2022-08-04T09:17:30.495Z,101357.56
2022-08-04T09:20:04.211Z,101355.09
2022-08-04T09:22:46.205Z,101370.16
2022-08-04T09:25:25.280Z,101358.31
2022-08-04T09:27:56.450Z,101375.84
2022-08-04T09:30:34.278Z,101384.69
2022-08-04T09:33:22.540Z,101390.56
2022-08-04T09:36:27.036Z,101392.31
2022-08-04T09:39:13.135Z,101391.22
2022-08-04T09:41:56.632Z,101379.13
2022-08-04T09:44:52.528Z,101365.09
2022-08-04T09:47:39.783Z,101387.28
2022-08-04T09:50:33.437Z,101397.09
2022-08-04T09:53:31.824Z,101381.69
2022-08-04T09:56:10.772Z,101399.94
2022-08-04T09:58:58.320Z,101365.69
2022-08-04T10:01:32.022Z,101412.16
2022-08-04T10:04:03.908Z,101417.56
2022-08-04T10:07:00.101Z,101424.06
2022-08-04T10:09:51.827Z,101425.13
2022-08-04T10:12:36.836Z,101418.94
2022-08-04T10:15:17.782Z,101386.22
2022-08-04T10:18:12.568Z,101396.06
2022-08-04T10:21:09.105Z,101428.44
2022-08-04T10:24:02.254Z,101443.72
2022-08-04T10:26:38.260Z,101417.72
2022-08-04T10:29:15.588Z,101408.66
2022-08-04T10:31:52.782Z,101425.84
2022-08-04T10:34:26.354Z,101434.50
2022-08-04T10:37:05.416Z,101393.31
2022-08-04T10:40:08.202Z,101344.63
2022-08-04T10:42:45.346Z,101403.31
2022-08-04T10:45:23.558Z,101387.81
2022-08-04T10:48:01.581Z,101401.97
2022-08-04T10:50:31.480Z,101395.81
2022-08-04T10:53:09.350Z,101399.88
2022-08-04T10:56:06.374Z,101385.50
2022-08-04T10:58:48.340Z,101389.88
2022-08-04T11:02:01.322Z,101391.53
2022-08-04T11:04:26.614Z,101360.84
2022-08-04T11:06:59.206Z,101389.72
2022-08-04T11:09:30.116Z,101349.03
2022-08-04T11:12:08.411Z,101350.91
2022-08-04T11:14:54.477Z,101374.94
2022-08-04T11:17:29.157Z,101370.91
2022-08-04T11:20:33.659Z,101371.72
2022-08-04T11:23:08.014Z,101382.19
2022-08-04T11:25:52.267Z,101375.94
2022-08-04T11:28:34.520Z,101361.53
2022-08-04T11:31:08.440Z,101361.75
2022-08-04T11:33:48.611Z,101369.66
2022-08-04T11:36:27.373Z,101326.09
2022-08-04T11:39:08.001Z,101379.50
2022-08-04T11:41:47.244Z,101359.06
2022-08-04T11:44:27.699Z,101392.38
2022-08-04T11:47:03.625Z,101398.25
2022-08-04T11:49:56.647Z,101368.00
2022-08-04T11:52:28.442Z,101401.97
2022-08-04T11:54:58.788Z,101386.16
2022-08-04T11:57:35.950Z,101395.22
2022-08-04T12:00:11.173Z,101382.81
2022-08-04T12:03:12.968Z,101390.28
2022-08-04T12:05:55.522Z,101371.69
2022-08-04T12:08:41.464Z,101394.59
2022-08-04T12:11:29.630Z,101416.41
2022-08-04T12:14:09.476Z,101411.31
2022-08-04T12:16:49.784Z,101401.53
2022-08-04T12:19:25.175Z,101405.78
2022-08-04T12:22:07.110Z,101406.41
2022-08-04T12:24:45.371Z,101401.38
2022-08-04T12:27:25.957Z,101396.09
2022-08-04T12:30:58.827Z,101398.84
2022-08-04T12:32:57.637Z,101386.75
2022-08-04T12:35:34.907Z,101384.50
2022-08-04T12:38:10.050Z,101393.03
2022-08-04T12:40:46.185Z,101369.03
2022-08-04T12:43:22.763Z,101418.84
2022-08-04T12:45:55.069Z,101421.63
2022-08-04T12:48:25.513Z,101414.44
2022-08-04T12:50:56.591Z,101416.03
2022-08-04T12:53:33.506Z,101399.63
2022-08-04T12:56:26.587Z,101418.38
2022-08-04T12:59:07.332Z,101378.09
2022-08-04T13:02:06.825Z,101400.22
2022-08-04T13:04:42.935Z,101403.28
2022-08-04T13:07:26.044Z,101414.66
2022-08-04T13:09:56.113Z,101409.47
2022-08-04T13:12:32.267Z,101404.06
2022-08-04T13:15:17.649Z,101393.63
2022-08-04T13:17:57.071Z,101419.19
2022-08-04T13:20:30.185Z,101407.13
2022-08-04T13:23:10.686Z,101426.00
2022-08-04T13:26:43.212Z,101429.19
2022-08-04T13:28:35.794Z,101423.94
2022-08-04T13:31:09.490Z,101417.97
2022-08-04T13:33:42.631Z,101419.03
2022-08-04T13:36:12.244Z,101388.56
2022-08-04T13:38:49.773Z,101404.41
2022-08-04T13:41:21.497Z,101408.97
2022-08-04T13:44:17.797Z,101419.81
2022-08-04T13:46:50.481Z,101384.50
2022-08-04T13:49:43.035Z,101404.72
2022-08-04T13:52:11.116Z,101419.44
2022-08-04T13:54:43.926Z,101416.00
2022-08-04T13:57:19.227Z,101418.31
2022-08-04T13:59:53.349Z,101420.28
2022-08-04T14:02:33.251Z,101425.25
2022-08-04T14:05:18.058Z,101403.78
2022-08-04T14:07:51.836Z,101420.78
2022-08-04T14:10:20.558Z,101406.16
2022-08-04T14:12:53.784Z,101406.19
2022-08-04T14:16:01.408Z,101414.09
2022-08-04T14:18:27.559Z,101405.66
2022-08-04T14:21:11.401Z,101398.72
2022-08-04T14:23:52.067Z,101396.03
2022-08-04T14:26:32.624Z,101406.06
2022-08-04T14:29:26.570Z,101400.75
2022-08-04T14:32:05.932Z,101369.63
2022-08-04T14:34:45.162Z,101395.31
2022-08-04T14:37:19.329Z,101410.72
2022-08-04T14:40:18.066Z,101405.47
2022-08-04T14:42:43.776Z,101390.91
2022-08-04T14:45:13.715Z,101389.91
2022-08-04T14:47:52.140Z,101377.56
2022-08-04T14:50:33.993Z,101388.19
2022-08-04T14:53:06.335Z,101410.41
2022-08-04T14:55:36.901Z,101397.94
2022-08-04T14:58:36.762Z,101389.81
2022-08-04T15:00:59.423Z,101376.66
2022-08-04T15:03:30.358Z,101419.59
2022-08-04T15:06:08.053Z,101377.31
2022-08-04T15:08:42.318Z,101390.47
2022-08-04T15:11:23.592Z,101406.59
2022-08-04T15:13:53.628Z,101421.22
2022-08-04T15:16:26.225Z,101399.16
2022-08-04T15:18:56.986Z,101418.16
2022-08-04T15:21:29.146Z,101409.28
2022-08-04T15:23:58.969Z,101424.00
2022-08-04T15:26:38.464Z,101390.16
2022-08-04T15:29:17.198Z,101407.41
2022-08-04T15:32:07.570Z,101423.22
2022-08-04T15:34:48.466Z,101412.41
2022-08-04T15:37:26.691Z,101423.59
2022-08-04T15:40:02.042Z,101407.00
2022-08-04T15:42:36.949Z,101426.38
2022-08-04T15:46:41.203Z,101429.25
2022-08-04T15:48:36.716Z,101390.59
2022-08-04T15:51:15.216Z,101425.50
2022-08-04T15:54:24.433Z,101424.06
2022-08-04T15:57:01.501Z,101424.09
2022-08-04T16:00:12.539Z,101432.75
2022-08-04T16:02:45.047Z,101404.06
2022-08-04T16:05:39.332Z,101420.94
2022-08-04T16:08:16.222Z,101428.72
2022-08-04T16:10:50.517Z,101417.47
2022-08-04T16:13:21.936Z,101420.97
2022-08-04T16:15:53.990Z,101412.94
2022-08-04T16:18:40.598Z,101430.53
2022-08-04T16:21:22.940Z,101423.75
2022-08-04T16:24:23.090Z,101432.19
2022-08-04T16:26:58.091Z,101425.56
2022-08-04T16:29:48.230Z,101416.94
2022-08-04T16:32:23.143Z,101424.97
2022-08-04T16:34:59.980Z,101434.19
2022-08-04T16:37:43.735Z,101435.81
2022-08-04T16:40:37.699Z,101406.13
2022-08-04T16:43:11.523Z,101426.75
2022-08-04T16:45:59.027Z,101414.59
2022-08-04T16:48:29.344Z,101410.16
2022-08-04T16:51:05.010Z,101431.97
2022-08-04T16:53:57.858Z,101436.31
2022-08-04T16:56:35.345Z,101446.13
2022-08-04T16:59:09.733Z,101433.09
2022-08-04T17:01:39.414Z,101406.38
2022-08-04T17:04:08.350Z,101416.66
2022-08-04T17:06:39.927Z,101444.03
2022-08-04T17:09:13.575Z,101424.63
2022-08-04T17:11:43.602Z,101455.22
2022-08-04T17:14:12.478Z,101444.94
2022-08-04T17:16:43.897Z,101450.59
2022-08-04T17:19:24.198Z,101438.41
2022-08-04T17:22:04.261Z,101444.75
2022-08-04T17:24:38.059Z,101444.41
2022-08-04T17:28:19.918Z,101433.03
2022-08-04T17:29:56.667Z,101435.22
2022-08-04T17:32:26.068Z,101427.66
2022-08-04T17:34:58.512Z,101443.50
2022-08-04T17:40:25.241Z,101443.63
2022-08-04T17:44:01.320Z,101447.38
2022-08-04T17:46:29.883Z,101442.69
2022-08-04T17:49:01.648Z,101426.13
2022-08-04T17:51:53.161Z,101448.47
2022-08-04T17:54:37.080Z,101459.84
2022-08-04T17:57:21.569Z,101432.56
2022-08-04T17:59:58.789Z,101422.69
2022-08-04T18:02:32.976Z,101450.88
2022-08-04T18:05:12.312Z,101446.22
2022-08-04T18:08:39.428Z,101447.03
2022-08-04T18:10:44.725Z,101458.13
2022-08-04T18:13:28.809Z,101469.59
2022-08-04T18:16:05.861Z,101483.84
2022-08-04T18:18:41.244Z,101473.97
2022-08-04T18:21:17.547Z,101482.47
2022-08-04T18:23:50.863Z,101486.72
2022-08-04T18:26:23.572Z,101512.06
2022-08-04T18:28:53.813Z,101490.06
2022-08-04T18:31:22.967Z,101517.31
2022-08-04T18:33:57.211Z,101487.00
2022-08-04T18:36:33.182Z,101510.38
2022-08-04T18:39:11.925Z,101518.88
2022-08-04T18:42:02.243Z,101503.69
2022-08-04T18:44:32.829Z,101481.13
2022-08-04T18:47:23.216Z,101516.81
2022-08-04T18:50:59.843Z,101504.72
2022-08-04T18:52:42.082Z,101520.09
2022-08-04T18:55:55.578Z,101536.28
2022-08-04T18:58:08.450Z,101550.69
2022-08-04T19:00:45.570Z,101530.41
2022-08-04T19:03:16.203Z,101553.03
2022-08-04T19:05:51.300Z,101544.19
2022-08-04T19:08:32.892Z,101537.28
2022-08-04T19:11:37.335Z,101558.59
2022-08-04T19:13:58.479Z,101556.72
2022-08-04T19:16:30.814Z,101557.56
2022-08-04T19:19:00.474Z,101561.00
2022-08-04T19:22:00.575Z,101578.31
2022-08-04T19:24:31.751Z,101569.19
2022-08-04T19:27:06.773Z,101541.94
2022-08-04T19:29:41.347Z,101574.13
2022-08-04T19:32:15.998Z,101549.94
2022-08-04T19:34:47.634Z,101599.84
2022-08-04T19:37:56.259Z,101580.75
2022-08-04T19:40:08.175Z,101583.47
2022-08-04T19:42:38.553Z,101558.16
2022-08-04T19:45:10.003Z,101595.50
2022-08-04T19:48:12.141Z,101601.75
2022-08-04T19:50:35.639Z,101602.78
2022-08-04T19:53:19.232Z,101600.50
2022-08-04T19:55:49.546Z,101601.00
2022-08-04T19:58:21.652Z,101595.28
2022-08-04T20:00:54.856Z,101575.94
2022-08-04T20:04:09.485Z,101548.81
2022-08-04T20:06:14.255Z,101581.84
2022-08-04T20:08:47.955Z,101599.91
2022-08-04T20:11:18.516Z,101609.28
2022-08-04T20:13:54.315Z,101602.38
2022-08-04T20:16:30.390Z,101612.00
2022-08-04T20:19:04.111Z,101607.97
2022-08-04T20:21:53.525Z,101611.66
2022-08-04T20:24:40.010Z,101613.41
2022-08-04T20:27:15.303Z,101646.63
2022-08-04T20:29:48.472Z,101609.66
2022-08-04T20:32:22.691Z,101618.00
2022-08-04T20:34:54.393Z,101622.72
2022-08-04T20:37:25.089Z,101619.22
2022-08-04T20:39:57.757Z,101619.47
2022-08-04T20:42:34.047Z,101605.69
2022-08-04T20:45:03.145Z,101605.84
2022-08-04T20:47:35.447Z,101601.66
2022-08-04T20:52:56.365Z,101632.81
2022-08-04T20:55:29.602Z,101624.63
2022-08-04T20:58:02.655Z,101630.19
2022-08-04T21:00:32.852Z,101606.16
2022-08-04T21:03:02.857Z,101604.53
2022-08-04T21:05:33.942Z,101623.59
2022-08-04T21:08:02.328Z,101626.28
2022-08-04T21:10:30.962Z,101606.66
2022-08-04T21:12:59.441Z,101612.16
2022-08-04T21:15:58.799Z,101597.75
2022-08-04T21:18:16.963Z,101613.25
2022-08-04T21:20:48.052Z,101613.28
2022-08-04T21:23:17.000Z,101628.19
2022-08-04T21:25:49.855Z,101625.44
2022-08-04T21:31:11.248Z,101566.47
2022-08-04T21:33:52.210Z,101608.19
2022-08-04T21:36:22.361Z,101619.63
2022-08-04T21:38:56.318Z,101605.00
2022-08-04T21:41:27.140Z,101577.66
2022-08-04T21:43:58.890Z,101590.84
2022-08-04T21:46:29.954Z,101590.22
2022-08-04T21:48:59.214Z,101595.28
2022-08-04T21:51:58.544Z,101590.88
2022-08-04T21:54:23.935Z,101579.97
2022-08-04T21:56:52.544Z,101581.78
2022-08-04T21:59:28.494Z,101582.63
2022-08-04T22:02:01.709Z,101575.50
2022-08-04T22:04:31.265Z,101585.22
2022-08-04T22:07:02.672Z,101560.66
2022-08-04T22:12:22.072Z,101583.03
2022-08-04T22:14:59.537Z,101563.00
2022-08-04T22:17:34.941Z,101575.16
2022-08-04T22:20:27.331Z,101612.13
2022-08-04T22:23:06.158Z,101568.28
2022-08-04T22:25:45.069Z,101588.13
2022-08-04T22:28:28.568Z,101580.13
2022-08-04T22:30:58.324Z,101584.34
2022-08-04T22:33:54.592Z,101575.78
2022-08-04T22:36:17.438Z,101538.59
2022-08-04T22:38:53.535Z,101564.09
2022-08-04T22:41:48.115Z,101545.09
2022-08-04T22:44:16.096Z,101544.22
2022-08-04T22:46:44.671Z,101535.34
2022-08-04T22:49:14.150Z,101533.22
2022-08-04T22:51:50.643Z,101556.94
2022-08-04T22:54:20.743Z,101580.22
2022-08-04T22:56:54.246Z,101565.91
2022-08-04T22:59:22.631Z,101593.81
2022-08-04T23:01:57.848Z,101584.53
2022-08-04T23:04:29.304Z,101552.56
2022-08-04T23:06:57.770Z,101594.09
2022-08-04T23:09:49.961Z,101577.69
2022-08-04T23:12:26.230Z,101579.28
2022-08-04T23:14:56.977Z,101595.09
2022-08-04T23:17:27.473Z,101588.56
2022-08-04T23:19:58.885Z,101562.25
2022-08-04T23:22:41.895Z,101571.28
2022-08-04T23:25:15.722Z,101537.97
2022-08-04T23:27:48.204Z,101573.16
2022-08-04T23:30:24.967Z,101576.34
2022-08-04T23:32:58.850Z,101590.75
2022-08-04T23:35:27.959Z,101577.34
2022-08-04T23:37:59.843Z,101577.53
2022-08-04T23:40:50.292Z,101597.97
2022-08-04T23:43:19.844Z,101572.44
2022-08-04T23:46:07.981Z,101570.09
2022-08-04T23:48:39.122Z,101568.34
2022-08-04T23:51:14.393Z,101559.53
2022-08-04T23:54:02.393Z,101562.16
2022-08-04T23:56:35.706Z,101551.53
2022-08-04T23:59:48.901Z,101575.72
